Time;durP1;ratioP1;P1;durP2;ratioP2;P2;SDS_P1;SDS_P2;PMS_P1;PMS_P2;Temp;Humidity;BMP_temperature;BMP_pressure;BME280_temperature;BME280_humidity;BME280_pressure;Samples;Min_cycle;Max_cycle;Signal;HPM_P1;HPM_P2
2022/10/09 00:00:15;;;;;;;;;;;;;;;18.79;46.81;95525.44;6114919;19;1484;-83
2022/10/09 00:02:18;;;;;;;;;;;;;;;18.79;47.28;95516.63;6118767;19;1382;-83
2022/10/09 00:04:24;;;;;;;;;;;;;;;18.77;47.02;95514.97;6121090;19;1532;-79
2022/10/09 00:06:30;;;;;;;;;;;;;;;18.79;47.09;95517.44;6122136;19;1509;-79
2022/10/09 00:08:35;;;;;;;;;;;;;;;18.79;46.85;95525.44;6124854;19;1500;-79
2022/10/09 00:10:42;;;;;;;;;;;;;;;18.78;46.97;95523.81;6122478;19;1849;-79
2022/10/09 00:12:45;;;;;;;;;;;;;;;18.77;46.79;95520.28;6104197;19;1582;-79
2022/10/09 00:14:48;;;;;;;;;;;;;;;18.76;47.18;95512.50;6121369;19;1526;-78
2022/10/09 00:16:52;;;;;;;;;;;;;;;18.76;46.89;95509.84;6123185;19;1575;-79
2022/10/09 00:18:55;;;;;;;;;;;;;;;18.76;46.89;95513.31;6122689;19;1506;-79
2022/10/09 00:21:01;;;;;;;;;;;;;;;18.79;46.92;95511.31;6122136;19;1518;-80
2022/10/09 00:23:05;;;;;;;;;;;;;;;18.76;46.83;95507.19;6111999;19;1497;-80
2022/10/09 00:25:08;;;;;;;;;;;;;;;18.75;47.04;95506.38;6116444;19;1428;-80
2022/10/09 00:27:12;;;;;;;;;;;;;;;18.76;47.56;95504.53;6123721;19;1608;-80
2022/10/09 00:29:15;;;;;;;;;;;;;;;18.83;47.29;95502.75;6124173;19;1865;-78
2022/10/09 00:31:19;;;;;;;;;;;;;;;18.79;47.32;95504.13;6122066;19;1513;-80
2022/10/09 00:33:23;;;;;;;;;;;;;;;18.83;46.82;95501.91;6123136;19;1563;-79
2022/10/09 00:35:26;;;;;;;;;;;;;;;18.85;47.11;95505.22;6104846;19;1505;-80
2022/10/09 00:37:32;;;;;;;;;;;;;;;18.87;46.86;95504.03;6122762;19;1444;-79
2022/10/09 00:39:35;;;;;;;;;;;;;;;18.87;46.90;95493.38;6123300;19;1497;-79
2022/10/09 00:41:39;;;;;;;;;;;;;;;18.86;46.83;95490.88;6123041;19;1493;-78
2022/10/09 00:43:44;;;;;;;;;;;;;;;18.87;46.90;95496.03;6123917;19;1521;-79
2022/10/09 00:45:51;;;;;;;;;;;;;;;18.82;47.22;95486.97;6110172;19;1444;-79
2022/10/09 00:47:56;;;;;;;;;;;;;;;18.80;47.30;95481.81;6117041;19;1517;-79
2022/10/09 00:50:01;;;;;;;;;;;;;;;18.79;47.36;95484.69;6120407;19;1875;-79
2022/10/09 00:52:06;;;;;;;;;;;;;;;18.78;47.51;95478.53;6120277;19;1508;-78
2022/10/09 00:54:14;;;;;;;;;;;;;;;18.77;47.57;95480.34;6120773;19;1053;-78
2022/10/09 00:56:17;;;;;;;;;;;;;;;18.77;47.55;95482.19;6121810;19;1576;-79
2022/10/09 00:58:21;;;;;;;;;;;;;;;18.78;47.51;95483.88;6104966;19;1591;-78
2022/10/09 01:00:25;;;;;;;;;;;;;;;18.78;47.82;95473.22;6121585;19;1497;-78
2022/10/09 01:02:28;;;;;;;;;;;;;;;18.77;47.70;95477.69;6121041;19;1591;-78
2022/10/09 01:04:32;;;;;;;;;;;;;;;18.78;48.03;95483.88;6117666;19;1453;-78
2022/10/09 01:06:42;;;;;;;;;;;;;;;18.76;48.15;95476.06;6121301;19;1612;-78
2022/10/09 01:08:49;;;;;;;;;;;;;;;18.76;48.47;95475.22;6105074;19;1517;-78
2022/10/09 01:11:01;;;;;;;;;;;;;;;18.75;48.20;95470.91;6119822;19;1826;-79
2022/10/09 01:13:08;;;;;;;;;;;;;;;18.75;48.69;95474.41;6122078;19;1512;-78
2022/10/09 01:15:17;;;;;;;;;;;;;;;18.79;48.37;95469.53;6119349;19;1420;-79
2022/10/09 01:17:26;;;;;;;;;;;;;;;18.78;48.76;95473.22;6118669;19;1454;-80
2022/10/09 01:19:37;;;;;;;;;;;;;;;18.78;48.77;95470.56;6115351;19;1567;-79
2022/10/09 01:21:43;;;;;;;;;;;;;;;18.78;48.47;95483.88;6110032;19;1517;-78
2022/10/09 01:23:54;;;;;;;;;;;;;;;18.76;48.46;95477.91;6121202;19;1587;-81
2022/10/09 01:26:07;;;;;;;;;;;;;;;18.76;48.84;95475.22;6122806;19;1492;-80
2022/10/09 01:28:14;;;;;;;;;;;;;;;18.75;48.81;95481.56;6120902;19;1568;-80
2022/10/09 01:30:18;;;;;;;;;;;;;;;18.75;48.67;95473.56;6120724;19;1849;-81
2022/10/09 01:32:24;;;;;;;;;;;;;;;18.73;48.60;95479.09;6104726;19;1425;-79
2022/10/09 01:34:28;;;;;;;;;;;;;;;18.74;48.73;95482.56;6118930;19;1512;-79
2022/10/09 01:36:32;;;;;;;;;;;;;;;18.74;48.62;95482.56;6120621;19;1531;-78
2022/10/09 01:38:36;;;;;;;;;;;;;;;18.74;48.53;95482.56;6118718;19;1505;-80
2022/10/09 01:40:40;;;;;;;;;;;;;;;18.74;48.55;95483.41;6121877;19;1575;-83
2022/10/09 01:42:45;;;;;;;;;;;;;;;18.74;48.86;95482.56;6112671;19;1650;-82
2022/10/09 01:44:51;;;;;;;;;;;;;;;18.73;48.92;95471.09;6116531;19;1508;-81
2022/10/09 01:46:54;;;;;;;;;;;;;;;18.74;48.55;95478.06;6119337;19;1523;-81
2022/10/09 01:49:08;;;;;;;;;;;;;;;18.74;48.25;95479.91;6119101;19;1488;-81
2022/10/09 01:51:11;;;;;;;;;;;;;;;18.74;48.46;95482.56;6117913;19;1846;-80
2022/10/09 01:53:19;;;;;;;;;;;;;;;18.73;48.44;95483.59;6120604;19;1515;-81
2022/10/09 01:55:36;;;;;;;;;;;;;;;18.72;48.59;95481.94;6103486;19;1500;-81
2022/10/09 01:57:45;;;;;;;;;;;;;;;18.73;48.42;95486.25;6121587;19;1488;-80
2022/10/09 01:59:53;;;;;;;;;;;;;;;18.72;48.57;95482.78;6120709;19;1411;-80
2022/10/09 02:01:58;;;;;;;;;;;;;;;18.74;48.30;95483.41;6121410;19;1738;-81
2022/10/09 02:04:02;;;;;;;;;;;;;;;18.73;48.66;95480.94;6116515;19;1656;-81
2022/10/09 02:06:07;;;;;;;;;;;;;;;18.72;48.38;95482.78;6102628;19;1711;-81
2022/10/09 02:08:12;;;;;;;;;;;;;;;18.73;48.61;95484.41;6119172;19;1501;-82
2022/10/09 02:10:17;;;;;;;;;;;;;;;18.75;48.37;95493.06;6118183;19;1857;-81
2022/10/09 02:12:21;;;;;;;;;;;;;;;18.75;48.47;95493.06;6123291;19;1442;-81
2022/10/09 02:14:25;;;;;;;;;;;;;;;18.76;48.31;95493.88;6122291;19;1496;-81
2022/10/09 02:16:38;;;;;;;;;;;;;;;18.74;48.43;95495.88;6114513;19;1572;-84
2022/10/09 02:18:44;;;;;;;;;;;;;;;18.73;48.33;95497.72;6112307;19;1591;-83
2022/10/09 02:20:50;;;;;;;;;;;;;;;18.76;48.34;95496.53;6117975;19;1517;-82
2022/10/09 02:22:55;;;;;;;;;;;;;;;18.75;48.09;95505.50;6120562;19;1563;-83
2022/10/09 02:24:59;;;;;;;;;;;;;;;18.76;48.22;95501.84;6119240;19;1606;-81
2022/10/09 02:27:03;;;;;;;;;;;;;;;18.79;47.98;95506.81;6118788;19;1587;-83
2022/10/09 02:29:06;;;;;;;;;;;;;;;18.76;48.35;95510.66;6101249;19;1513;-82
2022/10/09 02:31:13;;;;;;;;;;;;;;;18.77;48.35;95504.31;6119936;19;1869;-82
2022/10/09 02:33:19;;;;;;;;;;;;;;;18.76;48.25;95509.84;6120051;19;1512;-82
2022/10/09 02:35:23;;;;;;;;;;;;;;;18.75;48.10;95510.84;6117408;19;1572;-82
2022/10/09 02:37:26;;;;;;;;;;;;;;;18.73;47.99;95507.56;6118439;19;1544;-81
2022/10/09 02:39:30;;;;;;;;;;;;;;;18.74;48.25;95504.69;6112416;19;1516;-84
2022/10/09 02:41:33;;;;;;;;;;;;;;;18.73;48.20;95507.56;6108460;19;1527;-83
2022/10/09 02:43:37;;;;;;;;;;;;;;;18.72;48.30;95505.88;6120342;19;1477;-82
2022/10/09 02:45:40;;;;;;;;;;;;;;;18.74;48.40;95503.88;6120572;19;1438;-81
2022/10/09 02:47:43;;;;;;;;;;;;;;;18.75;48.41;95509.03;6119729;19;1406;-81
2022/10/09 02:49:49;;;;;;;;;;;;;;;18.73;48.49;95504.91;6119212;19;1409;-81
2022/10/09 02:51:53;;;;;;;;;;;;;;;18.72;48.31;95509.41;6106374;19;1595;-81
2022/10/09 02:53:58;;;;;;;;;;;;;;;18.74;48.32;95509.19;6123197;19;1600;-81
2022/10/09 02:56:01;;;;;;;;;;;;;;;18.72;48.34;95511.22;6125671;19;1456;-81
2022/10/09 02:58:05;;;;;;;;;;;;;;;18.75;48.54;95508.16;6122838;19;1575;-81
2022/10/09 03:00:09;;;;;;;;;;;;;;;18.89;47.79;95512.63;6123518;19;1447;-81
2022/10/09 03:02:12;;;;;;;;;;;;;;;18.92;47.74;95512.28;6118900;19;1509;-83
2022/10/09 03:04:16;;;;;;;;;;;;;;;19.03;47.95;95518.09;6114476;19;1404;-80
2022/10/09 03:06:24;;;;;;;;;;;;;;;18.98;47.84;95511.53;6123582;19;1421;-83
2022/10/09 03:08:28;;;;;;;;;;;;;;;18.88;48.07;95513.66;6126141;19;1588;-83
2022/10/09 03:10:31;;;;;;;;;;;;;;;18.80;48.67;95511.09;6124751;19;1849;-84
2022/10/09 03:12:34;;;;;;;;;;;;;;;18.79;48.73;95517.44;6126354;19;1413;-84
2022/10/09 03:14:38;;;;;;;;;;;;;;;18.80;48.74;95518.28;6110080;19;1338;-84
2022/10/09 03:16:41;;;;;;;;;;;;;;;18.77;48.63;95519.47;6124142;19;1480;-83
2022/10/09 03:18:45;;;;;;;;;;;;;;;18.85;48.44;95524.69;6126556;19;1401;-84
2022/10/09 03:20:48;;;;;;;;;;;;;;;18.98;48.33;95518.69;6125504;19;1424;-81
2022/10/09 03:22:54;;;;;;;;;;;;;;;18.93;48.10;95523.75;6123644;19;1459;-81
2022/10/09 03:24:58;;;;;;;;;;;;;;;18.85;48.29;95522.03;6117171;19;1513;-81
2022/10/09 03:27:01;;;;;;;;;;;;;;;18.81;48.49;95526.09;6113777;19;1572;-81
2022/10/09 03:29:04;;;;;;;;;;;;;;;18.77;48.49;95528.28;6123967;19;1465;-81
2022/10/09 03:31:08;;;;;;;;;;;;;;;18.75;48.70;95530.31;6122364;19;1872;-82
2022/10/09 03:33:11;;;;;;;;;;;;;;;18.77;48.47;95530.94;6124360;19;1500;-82
2022/10/09 03:35:15;;;;;;;;;;;;;;;18.75;48.78;95530.31;6124148;19;1591;-83
2022/10/09 03:37:18;;;;;;;;;;;;;;;18.74;48.54;95533.97;6105073;19;1508;-83
2022/10/09 03:39:24;;;;;;;;;;;;;;;18.73;48.97;95529.69;6121014;19;1583;-83
2022/10/09 03:41:27;;;;;;;;;;;;;;;18.73;48.79;95523.53;6124994;19;1520;-82
2022/10/09 03:43:31;;;;;;;;;;;;;;;18.73;49.02;95532.34;6121658;19;1501;-82
2022/10/09 03:45:34;;;;;;;;;;;;;;;18.74;48.72;95530.50;6124920;19;1558;-82
2022/10/09 03:47:38;;;;;;;;;;;;;;;18.78;48.70;95531.78;6114703;19;1517;-85
2022/10/09 03:49:41;;;;;;;;;;;;;;;18.76;49.04;95533.81;6114519;19;1021;-82
2022/10/09 03:51:44;;;;;;;;;;;;;;;18.75;48.97;95532.13;6122779;19;1861;-82
2022/10/09 03:53:48;;;;;;;;;;;;;;;18.74;48.71;95533.16;6122089;19;1603;-83
2022/10/09 03:55:54;;;;;;;;;;;;;;;18.73;48.81;95534.19;6122358;19;966;-83
2022/10/09 03:57:57;;;;;;;;;;;;;;;18.73;48.73;95542.16;6122394;19;1618;-83
2022/10/09 04:00:00;;;;;;;;;;;;;;;18.73;48.50;95539.50;6106524;19;1501;-82
2022/10/09 04:02:04;;;;;;;;;;;;;;;18.89;48.54;95539.25;6122218;19;1709;-85
2022/10/09 04:04:07;;;;;;;;;;;;;;;18.96;48.12;95542.84;6123281;19;1424;-85
2022/10/09 04:06:10;;;;;;;;;;;;;;;18.97;47.87;95544.47;6120536;19;1387;-85
2022/10/09 04:08:14;;;;;;;;;;;;;;;19.04;47.71;95541.06;6121137;19;1471;-82
2022/10/09 04:10:17;;;;;;;;;;;;;;;19.03;47.75;95542.06;6115303;19;1100;-82
2022/10/09 04:12:23;;;;;;;;;;;;;;;18.96;48.06;95542.84;6110516;19;1515;-82
2022/10/09 04:14:26;;;;;;;;;;;;;;;18.92;47.85;95546.03;6123317;19;1299;-83
2022/10/09 04:16:30;;;;;;;;;;;;;;;18.90;47.92;95546.25;6123271;19;1532;-83
2022/10/09 04:18:33;;;;;;;;;;;;;;;18.89;47.90;95544.59;6123480;19;1488;-83
2022/10/09 04:20:37;;;;;;;;;;;;;;;18.90;47.95;95540.94;6121190;19;1640;-86
2022/10/09 04:22:40;;;;;;;;;;;;;;;18.91;47.87;95539.09;6106965;19;1504;-83
2022/10/09 04:24:43;;;;;;;;;;;;;;;18.86;47.55;95539.63;6119753;19;1570;-80
2022/10/09 04:26:46;;;;;;;;;;;;;;;18.84;47.77;95544.34;6122825;19;1463;-80
2022/10/09 04:28:52;;;;;;;;;;;;;;;18.85;48.16;95545.97;6121837;19;1584;-84
2022/10/09 04:30:56;;;;;;;;;;;;;;;18.23;45.15;95551.72;6120652;19;1854;-80
2022/10/09 04:32:59;;;;;;;;;;;;;;;17.72;44.49;95559.53;6123232;19;1576;-82
2022/10/09 04:35:03;;;;;;;;;;;;;;;17.55;43.79;95562.31;6102468;19;1514;-82
2022/10/09 04:37:06;;;;;;;;;;;;;;;17.46;43.65;95563.41;6121002;19;1434;-81
2022/10/09 04:39:09;;;;;;;;;;;;;;;17.37;43.58;95559.97;6121462;19;1473;-81
2022/10/09 04:41:13;;;;;;;;;;;;;;;17.30;43.20;95559.06;6121028;19;1487;-80
2022/10/09 04:43:16;;;;;;;;;;;;;;;17.34;43.18;95556.84;6124829;19;1467;-81
2022/10/09 04:45:22;;;;;;;;;;;;;;;17.44;43.48;95565.41;6104292;19;1490;-83
2022/10/09 04:47:26;;;;;;;;;;;;;;;17.41;43.03;95560.44;6113827;19;1416;-83
2022/10/09 04:49:29;;;;;;;;;;;;;;;17.27;42.72;95559.41;6118289;19;1387;-82
2022/10/09 04:51:32;;;;;;;;;;;;;;;17.27;43.02;95561.22;6119711;19;1857;-81
2022/10/09 04:53:36;;;;;;;;;;;;;;;17.22;42.73;95555.63;6121582;19;1505;-82
2022/10/09 04:55:40;;;;;;;;;;;;;;;17.15;42.97;95558.97;6121525;19;1405;-82
2022/10/09 04:57:44;;;;;;;;;;;;;;;17.05;42.61;95558.38;6102453;19;1189;-82
2022/10/09 04:59:47;;;;;;;;;;;;;;;17.05;42.80;95562.88;6120842;19;1486;-82
2022/10/09 05:01:53;;;;;;;;;;;;;;;16.97;42.63;95563.75;6121013;19;1411;-83
2022/10/09 05:03:56;;;;;;;;;;;;;;;16.98;42.58;95566.22;6119971;19;1327;-83
2022/10/09 05:06:02;;;;;;;;;;;;;;;16.96;42.62;95564.75;6123182;19;1600;-82
2022/10/09 05:08:05;;;;;;;;;;;;;;;16.96;42.28;95572.72;6109487;19;1479;-83
2022/10/09 05:10:09;;;;;;;;;;;;;;;16.91;42.28;95565.28;6110306;19;1485;-83
2022/10/09 05:12:13;;;;;;;;;;;;;;;16.87;42.77;95571.09;6119389;19;1834;-83
2022/10/09 05:14:16;;;;;;;;;;;;;;;16.85;42.40;95570.47;6122973;19;1481;-83
2022/10/09 05:16:21;;;;;;;;;;;;;;;16.81;42.35;95569.16;6120703;19;1579;-81
2022/10/09 05:18:27;;;;;;;;;;;;;;;16.79;42.61;95571.13;6118255;19;1521;-81
2022/10/09 05:20:30;;;;;;;;;;;;;;;16.76;42.61;95574.97;6101648;19;1468;-81
2022/10/09 05:22:34;;;;;;;;;;;;;;;16.72;42.39;95577.13;6122849;19;1662;-81
2022/10/09 05:24:37;;;;;;;;;;;;;;;16.69;42.38;95580.13;6122488;19;1469;-81
2022/10/09 05:26:40;;;;;;;;;;;;;;;16.65;42.37;95578.81;6124152;19;1402;-81
2022/10/09 05:28:44;;;;;;;;;;;;;;;16.66;42.07;95577.00;6116899;19;1508;-80
2022/10/09 05:30:47;;;;;;;;;;;;;;;16.63;42.31;95583.47;6111085;19;1447;-80
2022/10/09 05:32:50;;;;;;;;;;;;;;;16.63;42.40;95580.00;6108702;19;1849;-80
2022/10/09 05:34:56;;;;;;;;;;;;;;;16.63;42.04;95583.47;6122522;19;1505;-81
2022/10/09 05:37:00;;;;;;;;;;;;;;;16.61;42.37;95581.97;6122844;19;1488;-80
2022/10/09 05:39:03;;;;;;;;;;;;;;;16.71;42.20;95583.44;6120776;19;1612;-87
2022/10/09 05:41:08;;;;;;;;;;;;;;;16.73;41.98;95584.09;6122278;19;1529;-82
2022/10/09 05:43:11;;;;;;;;;;;;;;;16.73;41.97;95585.91;6102388;19;1334;-82
2022/10/09 05:45:14;;;;;;;;;;;;;;;16.67;41.94;95590.09;6116746;19;1564;-83
2022/10/09 05:47:18;;;;;;;;;;;;;;;16.67;42.37;95590.09;6115807;19;1525;-82
2022/10/09 05:49:22;;;;;;;;;;;;;;;16.67;42.59;95592.75;6118071;19;1490;-82
2022/10/09 05:51:29;;;;;;;;;;;;;;;16.63;42.31;95588.78;6119266;19;1851;-81
2022/10/09 05:53:32;;;;;;;;;;;;;;;16.61;42.61;95596.06;6119184;19;1508;-83
2022/10/09 05:55:36;;;;;;;;;;;;;;;16.61;42.56;95600.56;6104680;19;954;-81
2022/10/09 05:57:39;;;;;;;;;;;;;;;16.60;42.91;95597.06;6119055;19;1057;-80
2022/10/09 05:59:42;;;;;;;;;;;;;;;16.59;42.90;95595.44;6119283;19;1513;-81
2022/10/09 06:01:47;;;;;;;;;;;;;;;16.61;42.89;95605.84;6119677;19;1521;-83
2022/10/09 06:03:52;;;;;;;;;;;;;;;16.60;43.25;95605.03;6117697;19;1279;-81
2022/10/09 06:06:00;;;;;;;;;;;;;;;16.41;43.72;95611.56;6100898;19;1120;-86
2022/10/09 06:08:06;;;;;;;;;;;;;;;16.44;44.09;95610.41;6117761;19;1037;-83
2022/10/09 06:10:10;;;;;;;;;;;;;;;16.70;43.81;95615.44;6115763;19;1403;-79
2022/10/09 06:12:14;;;;;;;;;;;;;;;16.63;43.52;95612.66;6116482;19;1849;-82
2022/10/09 06:14:17;;;;;;;;;;;;;;;16.67;43.68;95615.78;6117511;19;1541;-83
2022/10/09 06:16:20;;;;;;;;;;;;;;;16.60;43.29;95620.13;6117173;19;1099;-80
2022/10/09 06:18:24;;;;;;;;;;;;;;;16.62;44.46;95629.59;6101110;19;1502;-84
2022/10/09 06:20:27;;;;;;;;;;;;;;;16.70;44.44;95621.59;6119774;19;1045;-85
2022/10/09 06:22:30;;;;;;;;;;;;;;;16.65;44.48;95634.53;6118639;19;1096;-82
2022/10/09 06:24:39;;;;;;;;;;;;;;;16.76;44.78;95625.38;6118035;19;1090;-86
2022/10/09 06:26:42;;;;;;;;;;;;;;;16.91;44.55;95630.81;6119292;19;992;-81
2022/10/09 06:28:45;;;;;;;;;;;;;;;17.11;44.29;95633.88;6108773;19;1018;-81
2022/10/09 06:30:49;;;;;;;;;;;;;;;17.07;44.61;95628.09;6110420;19;1095;-84
2022/10/09 06:32:52;;;;;;;;;;;;;;;17.14;44.15;95633.50;6117008;19;1853;-84
2022/10/09 06:34:56;;;;;;;;;;;;;;;16.84;44.88;95632.50;6118169;19;1069;-87
2022/10/09 06:36:59;;;;;;;;;;;;;;;16.76;44.58;95638.66;6116769;19;966;-84
2022/10/09 06:39:04;;;;;;;;;;;;;;;16.71;44.52;95638.34;6117048;19;1033;-79
2022/10/09 06:41:10;;;;;;;;;;;;;;;16.73;46.34;95631.84;6098380;19;1435;-87
2022/10/09 06:43:14;;;;;;;;;;;;;;;16.95;47.10;95635.59;6117674;19;1429;-87
2022/10/09 06:45:17;;;;;;;;;;;;;;;16.94;47.37;95651.69;6117503;19;1037;-82
2022/10/09 06:47:20;;;;;;;;;;;;;;;17.12;46.10;95654.91;6115420;19;1438;-83
2022/10/09 06:49:24;;;;;;;;;;;;;;;17.41;45.55;95650.75;6117884;19;1062;-84
2022/10/09 06:51:27;;;;;;;;;;;;;;;17.43;46.26;95660.22;6107135;19;1842;-84
2022/10/09 06:53:30;;;;;;;;;;;;;;;17.39;46.06;95644.81;6108743;19;1124;-85
2022/10/09 06:55:34;;;;;;;;;;;;;;;17.44;45.68;95650.41;6119847;19;989;-88
2022/10/09 06:57:40;;;;;;;;;;;;;;;17.57;45.60;95645.34;6117388;19;1610;-86
2022/10/09 06:59:43;;;;;;;;;;;;;;;17.61;46.06;95646.66;6120190;19;1150;-87
2022/10/09 07:01:47;;;;;;;;;;;;;;;17.63;46.23;95647.28;6118090;19;1363;-88
2022/10/09 07:03:54;;;;;;;;;;;;;;;17.56;46.89;95643.69;6101807;19;1275;-87
2022/10/09 07:06:06;;;;;;;;;;;;;;;17.49;46.56;95649.88;6120897;19;993;-89
2022/10/09 07:08:11;;;;;;;;;;;;;;;17.59;46.00;95640.69;6121500;19;1128;-90
2022/10/09 07:10:14;;;;;;;;;;;;;;;17.62;46.24;95648.31;6119611;19;1529;-89
2022/10/09 07:12:18;;;;;;;;;;;;;;;17.64;45.96;95641.00;6119852;19;1849;-88
2022/10/09 07:14:24;;;;;;;;;;;;;;;17.68;46.26;95640.63;6113052;19;1057;-89
2022/10/09 07:16:28;;;;;;;;;;;;;;;17.71;46.15;95642.94;6108407;19;1503;-86
2022/10/09 07:18:33;;;;;;;;;;;;;;;17.75;46.16;95649.56;6119265;19;1459;-84
2022/10/09 07:20:37;;;;;;;;;;;;;;;17.69;46.40;95652.91;6121011;19;1504;-83
2022/10/09 07:22:41;;;;;;;;;;;;;;;17.66;46.25;95652.25;6117479;19;1624;-86
2022/10/09 07:24:44;;;;;;;;;;;;;;;17.70;45.90;95652.75;6120221;19;1568;-85
2022/10/09 07:26:47;;;;;;;;;;;;;;;17.70;45.83;95654.53;6103189;19;1638;-84
2022/10/09 07:28:51;;;;;;;;;;;;;;;17.69;45.74;95658.22;6120056;19;1405;-85
2022/10/09 07:30:58;;;;;;;;;;;;;;;17.68;45.86;95661.88;6118102;19;1303;-84
2022/10/09 07:33:01;;;;;;;;;;;;;;;17.77;45.69;95663.50;6116112;19;1862;-87
2022/10/09 07:35:05;;;;;;;;;;;;;;;17.77;46.07;95655.53;6116809;19;1528;-84
2022/10/09 07:37:08;;;;;;;;;;;;;;;17.64;45.85;95659.59;6114853;19;1399;-82
2022/10/09 07:39:12;;;;;;;;;;;;;;;17.64;45.13;95662.25;6112903;19;1494;-81
2022/10/09 07:41:18;;;;;;;;;;;;;;;17.25;45.99;95661.50;6126311;19;1492;-87
2022/10/09 07:43:22;;;;;;;;;;;;;;;17.25;47.04;95662.34;6124848;19;1496;-82
2022/10/09 07:45:26;;;;;;;;;;;;;;;17.15;46.65;95665.19;6123886;19;1579;-81
2022/10/09 07:47:32;;;;;;;;;;;;;;;17.12;46.49;95664.72;6124278;19;1497;-87
2022/10/09 07:49:35;;;;;;;;;;;;;;;17.06;46.79;95671.53;6106753;19;1427;-87
2022/10/09 07:51:38;;;;;;;;;;;;;;;17.10;46.59;95664.06;6123774;19;1575;-85
2022/10/09 07:53:42;;;;;;;;;;;;;;;17.18;46.73;95667.50;6121318;19;1850;-80
2022/10/09 07:55:46;;;;;;;;;;;;;;;16.95;48.08;95661.31;6126994;19;1660;-86
2022/10/09 07:57:50;;;;;;;;;;;;;;;17.10;47.35;95666.72;6125666;19;1595;-81
2022/10/09 07:59:54;;;;;;;;;;;;;;;17.23;46.89;95663.50;6112588;19;1434;-81
2022/10/09 08:01:57;;;;;;;;;;;;;;;17.13;47.71;95666.34;6113948;19;1500;-83
2022/10/09 08:04:03;;;;;;;;;;;;;;;17.16;46.81;95658.91;6124949;19;1514;-81
2022/10/09 08:06:07;;;;;;;;;;;;;;;17.16;47.55;95666.88;6122126;19;1480;-83
2022/10/09 08:08:10;;;;;;;;;;;;;;;17.08;48.90;95664.25;6121009;19;1388;-83
2022/10/09 08:10:14;;;;;;;;;;;;;;;16.90;48.77;95648.56;6123155;19;1144;-85
2022/10/09 08:12:17;;;;;;;;;;;;;;;17.14;47.45;95654.75;6105733;19;1833;-82
2022/10/09 08:14:20;;;;;;;;;;;;;;;17.35;47.15;95659.44;6124307;19;1445;-85
2022/10/09 08:16:25;;;;;;;;;;;;;;;17.68;47.05;95657.41;6121763;19;1102;-82
2022/10/09 08:18:28;;;;;;;;;;;;;;;17.99;46.32;95653.88;6123187;19;1197;-85
2022/10/09 08:20:34;;;;;;;;;;;;;;;17.74;46.64;95655.88;6120363;19;1467;-82
2022/10/09 08:22:38;;;;;;;;;;;;;;;17.52;46.17;95655.66;6117259;19;1581;-83
2022/10/09 08:24:44;;;;;;;;;;;;;;;17.61;46.70;95651.97;6113495;19;1178;-88
2022/10/09 08:26:47;;;;;;;;;;;;;;;17.63;46.74;95652.59;6124841;19;1639;-85
2022/10/09 08:28:51;;;;;;;;;;;;;;;17.60;46.90;95649.47;6124604;19;1635;-83
2022/10/09 08:30:54;;;;;;;;;;;;;;;17.68;46.66;95651.25;6121657;19;1496;-84
2022/10/09 08:32:58;;;;;;;;;;;;;;;17.69;47.08;95650.25;6124557;19;1849;-84
2022/10/09 08:35:01;;;;;;;;;;;;;;;17.71;46.68;95650.91;6106115;19;1511;-84
2022/10/09 08:37:07;;;;;;;;;;;;;;;17.73;46.62;95649.72;6120715;19;1534;-84
2022/10/09 08:39:11;;;;;;;;;;;;;;;17.66;46.71;95649.59;6121093;19;1185;-84
2022/10/09 08:41:19;;;;;;;;;;;;;;;17.67;46.82;95650.44;6126005;19;1330;-81
2022/10/09 08:43:29;;;;;;;;;;;;;;;17.57;46.31;95649.84;6122686;19;1762;-81
2022/10/09 08:45:35;;;;;;;;;;;;;;;17.59;46.78;95640.69;6124674;19;1587;-85
2022/10/09 08:47:42;;;;;;;;;;;;;;;17.80;46.03;95645.34;6105825;19;1508;-83
2022/10/09 08:49:48;;;;;;;;;;;;;;;17.99;45.74;95638.72;6122160;19;1517;-83
2022/10/09 08:51:52;;;;;;;;;;;;;;;18.12;46.00;95643.41;6124997;19;1509;-83
2022/10/09 08:54:00;;;;;;;;;;;;;;;18.18;45.76;95631.22;6123764;19;1849;-82
2022/10/09 08:56:04;;;;;;;;;;;;;;;18.20;45.71;95629.22;6125108;19;1579;-81
2022/10/09 08:58:08;;;;;;;;;;;;;;;18.21;46.07;95629.06;6103184;19;1381;-81
2022/10/09 09:00:16;;;;;;;;;;;;;;;18.24;45.78;95626.03;6118867;19;1516;-80
2022/10/09 09:02:37;;;;;;;;;;;;;;;18.32;45.62;95622.44;6121313;19;1432;-80
2022/10/09 09:04:46;;;;;;;;;;;;;;;18.38;45.49;95618.22;6119946;19;1611;-82
2022/10/09 09:06:56;;;;;;;;;;;;;;;18.40;45.55;95617.03;6121662;19;1489;-80
2022/10/09 09:09:08;;;;;;;;;;;;;;;18.41;45.28;95618.72;6117247;19;1497;-80
2022/10/09 09:11:18;;;;;;;;;;;;;;;18.43;45.42;95613.19;6112875;19;1458;-83
2022/10/09 09:13:32;;;;;;;;;;;;;;;18.44;45.37;95615.69;6120288;19;1850;-81
2022/10/09 09:15:40;;;;;;;;;;;;;;;18.46;45.33;95613.63;6119986;19;1624;-82
2022/10/09 09:17:48;;;;;;;;;;;;;;;18.44;45.42;95613.00;6121376;19;1468;-82
2022/10/09 09:19:56;;;;;;;;;;;;;;;18.46;45.16;95616.28;6109320;19;1511;-82
2022/10/09 09:22:00;;;;;;;;;;;;;;;18.47;45.26;95607.31;6103703;19;1533;-81
2022/10/09 09:24:14;;;;;;;;;;;;;;;18.50;45.20;95606.97;6122068;19;1392;-85
2022/10/09 09:26:18;;;;;;;;;;;;;;;18.49;45.79;95607.94;6123910;19;1518;-85
2022/10/09 09:28:24;;;;;;;;;;;;;;;18.50;45.46;95608.78;6125195;19;1157;-86
2022/10/09 09:30:30;;;;;;;;;;;;;;;18.50;45.80;95620.25;6121283;19;1217;-86
2022/10/09 09:32:34;;;;;;;;;;;;;;;18.52;45.81;95612.94;6107607;19;1884;-87
2022/10/09 09:34:40;;;;;;;;;;;;;;;18.53;45.82;95608.44;6119758;19;1010;-82
2022/10/09 09:36:46;;;;;;;;;;;;;;;18.56;45.57;95608.06;6119415;19;1723;-85
2022/10/09 09:38:50;;;;;;;;;;;;;;;18.58;45.55;95610.50;6123584;19;1566;-83
2022/10/09 09:40:56;;;;;;;;;;;;;;;18.60;45.43;95608.50;6120011;19;1155;-84
2022/10/09 09:43:00;;;;;;;;;;;;;;;18.61;45.30;95604.81;6123306;19;1605;-83
2022/10/09 09:45:04;;;;;;;;;;;;;;;18.58;45.58;95602.53;6102605;19;1509;-83
2022/10/09 09:47:13;;;;;;;;;;;;;;;18.57;45.26;95609.69;6119703;19;1416;-83
2022/10/09 09:49:17;;;;;;;;;;;;;;;18.59;45.15;95607.69;6118690;19;1238;-84
2022/10/09 09:51:22;;;;;;;;;;;;;;;18.58;45.56;95606.03;6120088;19;1323;-83
2022/10/09 09:53:28;;;;;;;;;;;;;;;18.62;45.15;95614.47;6121042;19;1856;-85
2022/10/09 09:55:33;;;;;;;;;;;;;;;18.60;45.54;95605.84;6104259;19;1190;-84
2022/10/09 09:57:45;;;;;;;;;;;;;;;18.60;45.47;95608.50;6117932;19;1501;-83
2022/10/09 09:59:48;;;;;;;;;;;;;;;18.62;45.48;95612.63;6120266;19;1409;-84
2022/10/09 10:02:00;;;;;;;;;;;;;;;18.61;45.40;95616.31;6121525;19;1426;-84
2022/10/09 10:04:05;;;;;;;;;;;;;;;18.62;45.13;95611.81;6120663;19;1456;-83
2022/10/09 10:06:22;;;;;;;;;;;;;;;18.63;45.29;95614.28;6119332;19;1384;-89
2022/10/09 10:08:27;;;;;;;;;;;;;;;18.66;45.74;95616.59;6115760;19;1830;-94
2022/10/09 10:10:31;;;;;;;;;;;;;;;18.63;45.84;95614.28;6122862;19;1419;-94
2022/10/09 10:12:36;;;;;;;;;;;;;;;18.66;45.93;95602.47;6127473;19;1528;-93
2022/10/09 10:14:51;;;;;;;;;;;;;;;18.65;45.97;95612.28;6125928;19;1826;-87
2022/10/09 10:16:56;;;;;;;;;;;;;;;18.65;45.91;95611.44;6123360;19;1499;-87
2022/10/09 10:19:00;;;;;;;;;;;;;;;18.67;45.83;95606.81;6102374;19;1437;-86
2022/10/09 10:21:05;;;;;;;;;;;;;;;18.69;46.00;95602.91;6117868;19;1004;-87
2022/10/09 10:23:22;;;;;;;;;;;;;;;18.69;45.95;95602.09;6120753;19;1456;-90
2022/10/09 10:25:27;;;;;;;;;;;;;;;18.66;45.72;95605.13;6121677;19;1493;-84
2022/10/09 10:27:35;;;;;;;;;;;;;;;18.67;45.76;95607.63;6118832;19;1485;-84
2022/10/09 10:29:40;;;;;;;;;;;;;;;18.69;45.99;95610.09;6110565;19;1503;-82
2022/10/09 10:31:49;;;;;;;;;;;;;;;18.69;45.90;95604.75;6107794;19;1364;-84
2022/10/09 10:33:56;;;;;;;;;;;;;;;18.71;45.62;95606.22;6116488;19;1833;-85
2022/10/09 10:36:00;;;;;;;;;;;;;;;18.72;45.81;95601.72;6120370;19;1417;-83
2022/10/09 10:38:05;;;;;;;;;;;;;;;18.74;45.76;95605.03;6121242;19;1399;-85
2022/10/09 10:40:14;;;;;;;;;;;;;;;18.73;45.77;95596.22;6119848;19;1421;-82
2022/10/09 10:42:21;;;;;;;;;;;;;;;18.52;45.46;95602.28;6099355;19;1359;-78
2022/10/09 10:44:27;;;;;;;;;;;;;;;18.47;45.79;95598.53;6114178;19;1420;-79
2022/10/09 10:46:33;;;;;;;;;;;;;;;18.46;45.80;95595.00;6116301;19;1695;-77
2022/10/09 10:48:41;;;;;;;;;;;;;;;18.38;44.61;95592.47;6118298;19;1442;-78
2022/10/09 10:50:56;;;;;;;;;;;;;;;18.28;44.22;95589.25;6119068;19;1420;-78
2022/10/09 10:53:05;;;;;;;;;;;;;;;18.32;44.49;95590.50;6103031;19;1874;-83
2022/10/09 10:55:19;;;;;;;;;;;;;;;18.29;44.36;95590.88;6119300;19;1491;-78
2022/10/09 10:57:25;;;;;;;;;;;;;;;18.28;44.36;95578.59;6118389;19;1454;-78
2022/10/09 10:59:38;;;;;;;;;;;;;;;18.26;44.55;95573.44;6118842;19;1437;-78